Saint John, Washington
Current Conditions -  °F | °C
As of 2:53 PM on Thursday 18 Dec 2014 (Local Time) from KPUW Reporting Station
Overcast Overcast  
Wind Chill: 38°   Ceiling: 4600
Heat Index: 43°   Visibility: 10mi
Dew Point: 38°   Wind: 8mph
Humidity: 82%   Direction: 110°ESE
Pressure: 29.99"   Gusts: NA
Location:  47.09°N, 117.58°W
Report Text: KPUW 182253Z AUTO 11007KT 10SM OVC046 06/03 A2999 RMK AO2 SLP168 T00610033
Loading
Personal Weather Stations






























Interactive Weather Map New forecast layout! Learn more

10-Day Weather Forecast

Advertisements
Track Severe Weather on mobile